createdAt,value
2019-04-05T00:01:33.258Z,77.22
2019-04-05T00:04:02.592Z,78.17
2019-04-05T00:06:32.447Z,77.66
2019-04-05T00:09:01.772Z,78.02
2019-04-05T00:11:31.131Z,77.78
2019-04-05T00:14:02.638Z,78.28
2019-04-05T00:16:32.148Z,78.45
2019-04-05T00:19:01.307Z,78.22
2019-04-05T00:21:30.426Z,78.19
2019-04-05T00:24:02.103Z,78.32
2019-04-05T00:26:31.092Z,78.40
2019-04-05T00:28:59.992Z,78.09
2019-04-05T00:31:29.384Z,77.93
2019-04-05T00:33:59.063Z,77.93
2019-04-05T00:36:27.972Z,78.18
2019-04-05T00:38:56.898Z,78.27
2019-04-05T00:41:25.850Z,78.17
2019-04-05T00:43:54.968Z,77.77
2019-04-05T00:46:24.518Z,78.27
2019-04-05T00:48:54.541Z,78.59
2019-04-05T00:51:25.487Z,78.53
2019-04-05T00:53:55.269Z,77.69
2019-04-05T00:56:24.196Z,77.81
2019-04-05T00:58:54.246Z,77.62
2019-04-05T01:01:23.014Z,77.80
2019-04-05T01:03:52.065Z,77.11
2019-04-05T01:06:21.977Z,77.60
2019-04-05T01:08:50.754Z,78.00
2019-04-05T01:11:20.111Z,77.57
2019-04-05T01:13:48.960Z,77.87
2019-04-05T01:16:19.068Z,77.41
2019-04-05T01:18:47.991Z,77.82
2019-04-05T01:21:19.943Z,77.37
2019-04-05T01:23:49.764Z,77.62
2019-04-05T01:26:18.950Z,78.18
2019-04-05T01:28:47.787Z,77.46
2019-04-05T01:31:17.071Z,78.05
2019-04-05T01:33:47.956Z,77.85
2019-04-05T01:36:17.297Z,77.46
2019-04-05T01:38:46.119Z,77.49
2019-04-05T01:41:15.948Z,77.30
2019-04-05T01:43:45.239Z,77.21
2019-04-05T01:46:14.211Z,76.98
2019-04-05T01:48:44.525Z,77.06
2019-04-05T01:51:13.368Z,77.28
2019-04-05T01:53:44.531Z,77.51
2019-04-05T01:56:14.144Z,77.19
2019-04-05T01:58:43.728Z,77.58
2019-04-05T02:01:12.564Z,77.71
2019-04-05T02:03:41.380Z,77.33
2019-04-05T02:06:11.973Z,77.64
2019-04-05T02:08:41.699Z,77.29
2019-04-05T02:11:10.815Z,77.16
2019-04-05T02:13:39.630Z,78.15
2019-04-05T02:16:10.023Z,78.00
2019-04-05T02:18:38.868Z,77.71
2019-04-05T02:21:08.967Z,77.64
2019-04-05T02:23:37.911Z,77.55
2019-04-05T02:26:08.271Z,77.42
2019-04-05T02:28:37.230Z,77.24
2019-04-05T02:31:07.409Z,77.75
2019-04-05T02:33:36.382Z,77.29
2019-04-05T02:36:06.451Z,77.26
2019-04-05T02:38:35.298Z,77.35
2019-04-05T02:41:04.143Z,77.39
2019-04-05T02:43:33.508Z,77.29
2019-04-05T02:46:03.169Z,77.72
2019-04-05T02:48:32.717Z,77.94
2019-04-05T02:51:01.602Z,77.53
2019-04-05T02:53:31.673Z,78.39
2019-04-05T02:56:03.006Z,78.73
2019-04-05T02:58:29.455Z,78.56
2019-04-05T03:00:58.306Z,78.21
2019-04-05T03:03:28.385Z,78.47
2019-04-05T03:05:57.928Z,78.73
2019-04-05T03:08:26.810Z,79.05
2019-04-05T03:11:04.612Z,78.58
2019-04-05T03:13:35.564Z,79.06
2019-04-05T03:16:07.081Z,78.42
2019-04-05T03:18:36.373Z,78.79
2019-04-05T03:21:05.880Z,78.46
2019-04-05T03:23:35.008Z,78.28
2019-04-05T03:26:04.746Z,79.08
2019-04-05T03:28:34.333Z,78.53
2019-04-05T03:31:03.541Z,79.57
2019-04-05T03:33:32.889Z,78.78
2019-04-05T03:36:01.940Z,78.44
2019-04-05T03:38:30.802Z,79.86
2019-04-05T03:40:59.665Z,79.39
2019-04-05T03:43:28.495Z,79.76
2019-04-05T03:45:57.308Z,80.18
2019-04-05T03:48:26.983Z,81.15
2019-04-05T03:50:55.978Z,81.96
2019-04-05T03:53:24.765Z,81.76
2019-04-05T03:55:53.576Z,81.82
2019-04-05T03:58:22.432Z,81.43
2019-04-05T04:00:51.257Z,82.06
2019-04-05T04:03:20.760Z,82.34
2019-04-05T04:05:49.690Z,81.43
2019-04-05T04:08:23.263Z,81.83
2019-04-05T04:10:49.315Z,82.32
2019-04-05T04:13:18.405Z,82.80
2019-04-05T04:15:48.485Z,83.32
2019-04-05T04:18:17.406Z,83.18
2019-04-05T04:20:46.460Z,82.61
2019-04-05T04:23:15.697Z,82.12
2019-04-05T04:25:45.536Z,82.73
2019-04-05T04:28:14.672Z,82.49
2019-04-05T04:30:45.011Z,82.20
2019-04-05T04:33:13.812Z,82.27
2019-04-05T04:35:42.633Z,81.87
2019-04-05T04:38:11.430Z,81.92
2019-04-05T04:40:41.366Z,82.46
2019-04-05T04:43:10.791Z,83.36
2019-04-05T04:45:39.642Z,83.54
2019-04-05T04:48:08.739Z,83.55
2019-04-05T04:50:40.922Z,83.78
2019-04-05T04:53:10.464Z,84.16
2019-04-05T04:55:39.282Z,83.33
2019-04-05T04:58:10.067Z,84.03
2019-04-05T05:00:39.425Z,83.94
2019-04-05T05:03:09.976Z,84.14
2019-04-05T05:05:38.854Z,83.02
2019-04-05T05:08:07.856Z,83.88
2019-04-05T05:10:36.823Z,84.14
2019-04-05T05:13:07.563Z,83.89
2019-04-05T05:15:38.003Z,83.97
2019-04-05T05:18:08.494Z,84.02
2019-04-05T05:20:37.914Z,84.50
2019-04-05T05:23:07.659Z,84.25
2019-04-05T05:25:36.637Z,83.77
2019-04-05T05:28:05.874Z,83.75
2019-04-05T05:30:35.135Z,82.95
2019-04-05T05:33:04.108Z,83.06
2019-04-05T05:35:32.995Z,82.84
2019-04-05T05:38:02.627Z,83.74
2019-04-05T05:40:35.159Z,83.30
2019-04-05T05:43:00.280Z,83.27
2019-04-05T05:45:29.112Z,83.10
2019-04-05T05:47:57.901Z,83.55
2019-04-05T05:50:28.069Z,83.46
2019-04-05T05:52:58.806Z,83.74
2019-04-05T05:55:30.118Z,82.96
2019-04-05T05:57:58.845Z,83.33
2019-04-05T06:00:30.315Z,83.32
2019-04-05T06:02:56.388Z,82.85
2019-04-05T06:05:25.915Z,82.82
2019-04-05T06:07:58.763Z,82.27
2019-04-05T06:10:26.086Z,82.72
2019-04-05T06:12:58.552Z,82.41
2019-04-05T06:15:24.371Z,81.84
2019-04-05T06:18:04.592Z,81.88
2019-04-05T06:20:24.684Z,81.41
2019-04-05T06:22:55.998Z,81.41
2019-04-05T06:25:25.029Z,81.13
2019-04-05T06:27:54.494Z,79.71
2019-04-05T06:30:28.514Z,75.04
2019-04-05T06:32:53.895Z,69.52
2019-04-05T06:35:24.054Z,63.65
2019-04-05T06:37:53.646Z,57.86
2019-04-05T06:40:22.472Z,56.14
2019-04-05T06:42:51.732Z,54.27
2019-04-05T06:45:20.609Z,51.20
2019-04-05T06:47:49.918Z,48.78
2019-04-05T06:50:18.859Z,48.05
2019-04-05T06:52:49.725Z,47.40
2019-04-05T06:55:18.618Z,47.94
2019-04-05T06:57:47.481Z,45.55
2019-04-05T07:00:17.078Z,44.71
2019-04-05T07:02:46.399Z,43.49
2019-04-05T07:05:15.296Z,40.17
2019-04-05T07:07:44.200Z,42.29
2019-04-05T07:10:13.151Z,40.31
2019-04-05T07:12:42.094Z,43.50
2019-04-05T07:15:11.643Z,42.31
2019-04-05T07:17:41.283Z,38.34
2019-04-05T07:20:11.846Z,40.97
2019-04-05T07:22:42.049Z,41.30
2019-04-05T07:25:11.083Z,39.77
2019-04-05T07:27:39.914Z,40.18
2019-04-05T07:30:08.980Z,38.77
2019-04-05T07:32:38.681Z,38.76
2019-04-05T07:35:08.447Z,36.63
2019-04-05T07:37:37.790Z,35.80
2019-04-05T07:40:08.602Z,35.17
2019-04-05T07:42:37.846Z,35.39
2019-04-05T07:45:07.034Z,33.77
2019-04-05T07:47:36.667Z,34.30
2019-04-05T07:50:06.345Z,34.28
2019-04-05T07:52:35.187Z,33.55
2019-04-05T07:55:04.674Z,34.76
2019-04-05T07:57:33.532Z,36.14
2019-04-05T08:00:02.374Z,37.39
2019-04-05T08:02:31.850Z,37.51
2019-04-05T08:05:00.898Z,36.48
2019-04-05T08:07:30.210Z,34.85
2019-04-05T08:10:02.679Z,33.43
2019-04-05T08:12:29.931Z,33.40
2019-04-05T08:14:59.394Z,32.88
2019-04-05T08:17:28.430Z,33.30
2019-04-05T08:19:57.844Z,33.79
2019-04-05T08:22:26.650Z,37.24
2019-04-05T08:24:56.451Z,39.86
2019-04-05T08:27:26.658Z,39.68
2019-04-05T08:29:55.465Z,41.95
2019-04-05T08:32:24.261Z,43.90
2019-04-05T08:34:55.423Z,45.33
2019-04-05T08:37:24.536Z,45.90
2019-04-05T08:39:53.518Z,46.96
2019-04-05T08:42:22.376Z,47.26
2019-04-05T08:44:51.674Z,48.53
2019-04-05T08:47:22.566Z,48.15
2019-04-05T08:49:50.046Z,49.15
2019-04-05T08:52:18.877Z,50.73
2019-04-05T08:54:47.769Z,50.04
2019-04-05T08:57:16.619Z,49.74
2019-04-05T08:59:46.188Z,48.62
2019-04-05T09:02:15.052Z,48.89
2019-04-05T09:04:43.891Z,50.12
2019-04-05T09:07:13.420Z,51.16
2019-04-05T09:09:43.136Z,50.94
2019-04-05T09:12:13.172Z,50.17
2019-04-05T09:14:42.058Z,49.63
2019-04-05T09:17:10.879Z,50.52
2019-04-05T09:19:40.376Z,50.14
2019-04-05T09:22:09.195Z,50.81
2019-04-05T09:24:38.060Z,50.58
2019-04-05T09:27:07.903Z,50.37
2019-04-05T09:29:36.818Z,50.45
2019-04-05T09:32:05.820Z,50.47
2019-04-05T09:34:34.643Z,50.77
2019-04-05T09:37:03.760Z,51.45
2019-04-05T09:39:33.063Z,51.31
2019-04-05T09:42:01.904Z,51.30
2019-04-05T09:44:32.039Z,50.70
2019-04-05T09:47:01.876Z,50.22
2019-04-05T09:49:36.973Z,50.89
2019-04-05T09:52:03.214Z,48.47
2019-04-05T09:54:33.328Z,49.20
2019-04-05T09:57:03.370Z,50.33
2019-04-05T09:59:32.499Z,49.29
2019-04-05T10:02:04.439Z,47.62
2019-04-05T10:04:33.222Z,48.56
2019-04-05T10:07:03.492Z,48.36
2019-04-05T10:09:33.312Z,46.82
2019-04-05T10:12:03.464Z,47.32
2019-04-05T10:14:32.443Z,47.54
2019-04-05T10:17:01.240Z,47.44
2019-04-05T10:19:30.725Z,48.47
2019-04-05T10:21:59.576Z,48.13
2019-04-05T10:24:29.456Z,46.34
2019-04-05T10:26:58.438Z,44.63
2019-04-05T10:29:27.471Z,43.61
2019-04-05T10:31:56.748Z,45.00
2019-04-05T10:34:26.009Z,44.36
2019-04-05T10:36:54.960Z,44.12
2019-04-05T10:39:23.843Z,44.84
2019-04-05T10:42:02.832Z,39.97
2019-04-05T10:44:21.649Z,40.57
2019-04-05T10:46:51.046Z,42.52
2019-04-05T10:49:20.708Z,42.17
2019-04-05T10:51:49.611Z,42.10
2019-04-05T10:54:18.462Z,41.91
2019-04-05T10:56:49.610Z,40.96
2019-04-05T10:59:19.406Z,40.75
2019-04-05T11:01:48.763Z,42.19
2019-04-05T11:04:21.523Z,42.44
2019-04-05T11:06:51.539Z,43.04
2019-04-05T11:09:20.817Z,44.44
2019-04-05T11:11:50.698Z,44.56
2019-04-05T11:14:19.604Z,44.28
2019-04-05T11:16:58.237Z,44.44
2019-04-05T11:19:18.186Z,44.88
2019-04-05T11:21:48.519Z,45.37
2019-04-05T11:24:16.686Z,45.62
2019-04-05T11:26:45.490Z,45.76
2019-04-05T11:29:14.851Z,45.95
2019-04-05T11:31:55.967Z,46.04
2019-04-05T11:34:12.792Z,45.23
2019-04-05T11:36:42.806Z,46.40
2019-04-05T11:39:12.302Z,47.35
2019-04-05T11:41:41.123Z,47.55
2019-04-05T11:44:10.877Z,47.88
2019-04-05T11:46:39.688Z,47.61
2019-04-05T11:49:09.692Z,48.49
2019-04-05T11:51:38.991Z,48.85
2019-04-05T11:54:08.503Z,49.04
2019-04-05T11:56:37.867Z,49.17
2019-04-05T11:59:08.780Z,49.96
2019-04-05T12:01:44.222Z,50.31
2019-04-05T12:04:13.132Z,51.68
2019-04-05T12:06:42.019Z,52.84
2019-04-05T12:09:10.859Z,52.63
2019-04-05T12:11:39.697Z,51.95
2019-04-05T12:14:08.570Z,51.80
2019-04-05T12:16:38.731Z,50.91
2019-04-05T12:19:08.591Z,51.69
2019-04-05T12:21:37.409Z,52.31
2019-04-05T12:24:06.664Z,52.31
2019-04-05T12:26:35.467Z,52.55
2019-04-05T12:29:04.409Z,52.30
2019-04-05T12:31:33.297Z,52.10
2019-04-05T12:34:02.088Z,52.23
2019-04-05T12:36:30.871Z,52.21
2019-04-05T12:39:01.575Z,52.70
2019-04-05T12:41:28.835Z,52.92
2019-04-05T12:43:58.917Z,52.52
2019-04-05T12:46:27.815Z,52.74
2019-04-05T12:48:56.703Z,52.61
2019-04-05T12:51:26.684Z,52.92
2019-04-05T12:53:57.373Z,52.52
2019-04-05T12:56:27.252Z,52.93
2019-04-05T12:58:57.049Z,52.48
2019-04-05T13:01:26.614Z,53.25
2019-04-05T13:03:58.655Z,52.54
2019-04-05T13:06:25.288Z,53.29
2019-04-05T13:08:54.883Z,52.68
2019-04-05T13:11:26.772Z,53.24
2019-04-05T13:13:54.353Z,53.62
2019-04-05T13:16:22.771Z,53.79
2019-04-05T13:18:51.596Z,54.06
2019-04-05T13:21:20.474Z,54.40
2019-04-05T13:23:49.351Z,54.38
2019-04-05T13:26:19.460Z,54.25
2019-04-05T13:28:48.573Z,53.39
2019-04-05T13:31:18.879Z,52.85
2019-04-05T13:33:46.174Z,53.61
2019-04-05T13:36:15.077Z,53.36
2019-04-05T13:38:54.197Z,53.00
2019-04-05T13:41:13.346Z,52.70
2019-04-05T13:43:42.750Z,53.42
2019-04-05T13:46:21.312Z,53.71
2019-04-05T13:48:40.690Z,53.16
2019-04-05T13:51:12.253Z,52.96
2019-04-05T13:53:40.475Z,52.86
2019-04-05T13:56:10.956Z,53.99
2019-04-05T13:58:39.166Z,53.32
2019-04-05T14:01:08.007Z,53.62
2019-04-05T14:03:39.879Z,54.34
2019-04-05T14:06:10.695Z,53.25
2019-04-05T14:08:41.128Z,52.68
2019-04-05T14:11:06.481Z,52.04
2019-04-05T14:13:35.363Z,52.37
2019-04-05T14:16:06.233Z,52.94
2019-04-05T14:18:33.104Z,53.49
2019-04-05T14:21:01.984Z,53.55
2019-04-05T14:23:30.952Z,52.90
2019-04-05T14:26:00.335Z,52.32
2019-04-05T14:28:28.896Z,52.69
2019-04-05T14:31:02.244Z,52.68
2019-04-05T14:33:27.790Z,52.10
2019-04-05T14:35:57.079Z,52.54
2019-04-05T14:38:25.886Z,51.91
2019-04-05T14:40:55.848Z,51.55
2019-04-05T14:43:24.651Z,51.39
2019-04-05T14:45:54.517Z,52.14
2019-04-05T14:48:23.305Z,52.39
2019-04-05T14:50:52.116Z,53.39
2019-04-05T14:53:20.987Z,53.27
2019-04-05T14:55:51.507Z,53.31
2019-04-05T14:58:20.604Z,53.11
2019-04-05T15:00:51.415Z,53.58
2019-04-05T15:03:20.724Z,53.89
2019-04-05T15:05:49.631Z,54.09
2019-04-05T15:08:20.702Z,53.38
2019-04-05T15:10:51.232Z,53.56
2019-04-05T15:13:17.553Z,53.79
2019-04-05T15:15:46.328Z,54.35
2019-04-05T15:18:15.461Z,53.81
2019-04-05T15:20:44.234Z,53.87
2019-04-05T15:23:15.141Z,54.39
2019-04-05T15:25:43.922Z,54.36
2019-04-05T15:28:12.740Z,55.04
2019-04-05T15:30:41.564Z,54.85
2019-04-05T15:33:11.326Z,54.69
2019-04-05T15:35:40.311Z,54.75
2019-04-05T15:38:09.152Z,55.61
2019-04-05T15:40:39.139Z,54.78
2019-04-05T15:43:07.977Z,55.76
2019-04-05T15:45:36.881Z,55.63
2019-04-05T15:48:06.909Z,55.91
2019-04-05T15:50:35.747Z,55.71
2019-04-05T15:53:04.710Z,56.08
2019-04-05T15:55:34.403Z,57.02
2019-04-05T15:58:03.848Z,58.17
2019-04-05T16:00:41.042Z,58.20
2019-04-05T16:03:09.880Z,58.31
2019-04-05T16:05:38.684Z,57.92
2019-04-05T16:08:07.735Z,58.39
2019-04-05T16:10:36.585Z,59.25
2019-04-05T16:13:07.972Z,59.43
2019-04-05T16:15:34.334Z,60.20
2019-04-05T16:18:03.132Z,60.35
2019-04-05T16:20:32.412Z,60.84
2019-04-05T16:23:01.921Z,60.56
2019-04-05T16:25:31.322Z,60.71
2019-04-05T16:28:00.166Z,61.33
2019-04-05T16:30:29.042Z,61.54
2019-04-05T16:32:59.106Z,61.83
2019-04-05T16:35:28.099Z,62.19
2019-04-05T16:37:57.540Z,62.02
2019-04-05T16:40:27.115Z,62.64
2019-04-05T16:43:02.449Z,62.83
2019-04-05T16:45:25.644Z,63.26
2019-04-05T16:47:55.260Z,62.97
2019-04-05T16:50:24.132Z,63.10
2019-04-05T16:52:52.915Z,63.10
2019-04-05T16:55:21.879Z,62.97
2019-04-05T16:57:51.148Z,63.56
2019-04-05T17:00:19.936Z,63.78
2019-04-05T17:02:49.469Z,64.12
2019-04-05T17:05:19.035Z,64.35
2019-04-05T17:07:48.428Z,64.72
2019-04-05T17:10:17.254Z,64.81
2019-04-05T17:12:46.740Z,65.23
2019-04-05T17:15:17.558Z,65.83
2019-04-05T17:17:47.485Z,65.52
2019-04-05T17:20:17.639Z,65.28
2019-04-05T17:22:57.581Z,65.30
2019-04-05T17:25:19.552Z,65.21
2019-04-05T17:27:48.433Z,65.48
2019-04-05T17:30:17.508Z,65.32
2019-04-05T17:32:46.415Z,65.87
2019-04-05T17:35:15.218Z,66.30
2019-04-05T17:37:44.031Z,66.22
2019-04-05T17:40:13.375Z,65.87
2019-04-05T17:42:43.314Z,66.21
2019-04-05T17:45:12.218Z,66.81
2019-04-05T17:47:41.054Z,67.30
2019-04-05T17:50:10.810Z,67.77
2019-04-05T17:52:38.870Z,67.88
2019-04-05T17:55:07.798Z,67.81
2019-04-05T17:57:36.618Z,68.26
2019-04-05T18:00:06.834Z,68.02
2019-04-05T18:02:35.664Z,67.80
2019-04-05T18:05:05.186Z,68.26
2019-04-05T18:07:34.025Z,68.62
2019-04-05T18:10:02.893Z,68.67
2019-04-05T18:12:31.803Z,69.10
2019-04-05T18:15:00.773Z,68.70
2019-04-05T18:17:30.193Z,69.63
2019-04-05T18:19:59.129Z,69.55
2019-04-05T18:22:28.045Z,69.72
2019-04-05T18:24:57.519Z,70.02
2019-04-05T18:27:26.690Z,70.48
2019-04-05T18:29:55.631Z,70.25
2019-04-05T18:32:24.530Z,70.44
2019-04-05T18:34:53.532Z,70.87
2019-04-05T18:37:22.367Z,70.79
2019-04-05T18:39:51.155Z,71.11
2019-04-05T18:42:20.983Z,71.28
2019-04-05T18:44:49.907Z,71.55
2019-04-05T18:47:19.336Z,71.35
2019-04-05T18:49:48.209Z,71.60
2019-04-05T18:52:17.439Z,71.82
2019-04-05T18:54:46.270Z,72.41
2019-04-05T18:57:15.249Z,71.93
2019-04-05T18:59:44.292Z,72.91
2019-04-05T19:02:16.608Z,72.81
2019-04-05T19:04:45.525Z,72.11
2019-04-05T19:07:14.371Z,72.63
2019-04-05T19:09:43.282Z,72.55
2019-04-05T19:12:12.997Z,73.18
2019-04-05T19:14:42.019Z,72.88
2019-04-05T19:17:23.273Z,74.07
2019-04-05T19:19:42.187Z,73.81
2019-04-05T19:22:12.671Z,74.07
2019-04-05T19:24:41.512Z,75.18
2019-04-05T19:27:11.379Z,74.07
2019-04-05T19:29:41.151Z,75.05
2019-04-05T19:49:35.135Z,76.38
2019-04-05T19:52:03.959Z,76.29
2019-04-05T19:54:33.143Z,76.40
2019-04-05T19:57:02.282Z,76.12
2019-04-05T19:59:31.151Z,76.28
2019-04-05T20:02:01.275Z,76.46
2019-04-05T20:04:30.262Z,75.95
2019-04-05T20:06:59.157Z,76.93
2019-04-05T20:09:28.114Z,77.57
2019-04-05T20:11:57.034Z,77.15
2019-04-05T20:14:25.879Z,76.36
2019-04-05T20:16:54.781Z,76.57
2019-04-05T20:19:23.735Z,76.11
2019-04-05T20:21:52.563Z,76.33
2019-04-05T20:24:21.465Z,76.51
2019-04-05T20:26:50.413Z,76.30
2019-04-05T20:29:20.627Z,75.97
2019-04-05T20:31:48.105Z,76.30
2019-04-05T20:34:17.833Z,76.34
2019-04-05T20:36:46.670Z,76.70
2019-04-05T20:39:15.531Z,76.70
2019-04-05T20:41:44.463Z,77.16
2019-04-05T20:44:13.656Z,77.76
2019-04-05T20:46:42.561Z,77.64
2019-04-05T20:49:12.825Z,78.07
2019-04-05T20:51:42.298Z,79.14
2019-04-05T20:54:12.151Z,78.39
2019-04-05T20:56:41.127Z,78.95
2019-04-05T20:59:09.980Z,78.71
2019-04-05T21:01:39.665Z,78.44
2019-04-05T21:04:08.712Z,78.48
2019-04-05T21:06:37.971Z,78.77
2019-04-05T21:09:07.879Z,79.32
2019-04-05T21:11:36.839Z,79.19
2019-04-05T21:14:05.756Z,78.79
2019-04-05T21:16:34.595Z,78.40
2019-04-05T21:19:05.052Z,78.94
2019-04-05T21:21:33.383Z,79.40
2019-04-05T21:24:02.603Z,79.10
2019-04-05T21:26:31.566Z,79.62
2019-04-05T21:29:00.482Z,79.86
2019-04-05T21:31:29.857Z,79.86
2019-04-05T21:33:59.156Z,81.46
2019-04-05T21:36:28.356Z,80.42
2019-04-05T21:38:58.189Z,81.00
2019-04-05T21:41:27.213Z,81.36
2019-04-05T21:43:56.957Z,81.92
2019-04-05T21:46:25.854Z,81.39
2019-04-05T21:48:54.725Z,81.42
2019-04-05T21:51:24.751Z,83.73
2019-04-05T21:53:53.283Z,83.31
2019-04-05T21:56:22.882Z,83.03
2019-04-05T21:58:51.868Z,82.64
2019-04-05T22:01:21.818Z,83.42
2019-04-05T22:03:50.737Z,84.19
2019-04-05T22:06:20.993Z,84.31
2019-04-05T22:08:50.025Z,83.66
2019-04-05T22:11:19.301Z,83.42
2019-04-05T22:13:48.250Z,83.66
2019-04-05T22:16:17.800Z,83.12
2019-04-05T22:18:46.790Z,83.19
2019-04-05T22:21:16.596Z,83.15
2019-04-05T22:23:45.676Z,83.47
2019-04-05T22:26:15.029Z,83.44
2019-04-05T22:28:44.053Z,83.04
2019-04-05T22:31:13.989Z,83.14
2019-04-05T22:33:42.926Z,83.22
2019-04-05T22:36:12.587Z,83.71
2019-04-05T22:38:41.520Z,84.02
2019-04-05T22:41:10.585Z,83.86
2019-04-05T22:43:39.642Z,84.00
2019-04-05T22:46:09.757Z,84.44
2019-04-05T22:48:38.688Z,84.75
2019-04-05T22:51:07.630Z,84.41
2019-04-05T22:53:36.735Z,84.61
2019-04-05T22:56:05.683Z,85.76
2019-04-05T22:58:34.720Z,85.39
2019-04-05T23:01:03.647Z,84.52
2019-04-05T23:03:32.878Z,84.64
2019-04-05T23:06:01.866Z,85.21
2019-04-05T23:08:30.767Z,85.05
2019-04-05T23:11:01.056Z,84.98
2019-04-05T23:13:30.332Z,84.91
2019-04-05T23:15:59.260Z,84.74
2019-04-05T23:18:28.181Z,84.98
2019-04-05T23:20:57.254Z,85.30
2019-04-05T23:23:26.653Z,85.29
2019-04-05T23:25:55.577Z,84.91
2019-04-05T23:28:24.585Z,84.60
2019-04-05T23:30:53.498Z,84.92
2019-04-05T23:33:22.430Z,85.18
2019-04-05T23:35:51.389Z,85.16
2019-04-05T23:38:21.128Z,85.36
2019-04-05T23:40:50.042Z,84.84
2019-04-05T23:43:19.093Z,84.74
2019-04-05T23:45:48.187Z,84.91
2019-04-05T23:48:17.784Z,85.21
2019-04-05T23:50:47.301Z,84.80
2019-04-05T23:53:17.225Z,85.13
2019-04-05T23:55:46.397Z,84.77
2019-04-05T23:58:15.345Z,84.84
